sensor_id;sensor_type;location;lat;lon;timestamp;pressure;altitude;pressure_sealevel;temperature;humidity
15529;BME280;7866;52.280;9.500;2022-07-23T00:01:20;100566.00;;;16.51;80.46
15529;BME280;7866;52.280;9.500;2022-07-23T00:06:22;100573.19;;;16.31;80.86
15529;BME280;7866;52.280;9.500;2022-07-23T00:11:25;100575.63;;;16.19;81.31
15529;BME280;7866;52.280;9.500;2022-07-23T00:16:27;100578.94;;;16.15;81.67
15529;BME280;7866;52.280;9.500;2022-07-23T00:21:29;100578.75;;;16.16;80.95
15529;BME280;7866;52.280;9.500;2022-07-23T00:26:32;100586.84;;;16.16;80.71
15529;BME280;7866;52.280;9.500;2022-07-23T00:31:34;100576.53;;;16.33;80.86
15529;BME280;7866;52.280;9.500;2022-07-23T00:36:36;100575.72;;;16.39;80.19
15529;BME280;7866;52.280;9.500;2022-07-23T00:41:39;100572.81;;;16.41;80.15
15529;BME280;7866;52.280;9.500;2022-07-23T00:46:45;100576.31;;;16.28;80.65
15529;BME280;7866;52.280;9.500;2022-07-23T00:51:48;100574.56;;;16.14;81.33
15529;BME280;7866;52.280;9.500;2022-07-23T00:56:51;100568.78;;;16.17;81.01
15529;BME280;7866;52.280;9.500;2022-07-23T01:01:53;100571.19;;;16.05;81.78
15529;BME280;7866;52.280;9.500;2022-07-23T01:06:55;100588.03;;;15.72;82.41
15529;BME280;7866;52.280;9.500;2022-07-23T01:11:58;100584.09;;;15.75;82.43
15529;BME280;7866;52.280;9.500;2022-07-23T01:17:00;100566.38;;;15.66;82.74
15529;BME280;7866;52.280;9.500;2022-07-23T01:22:03;100566.69;;;15.56;83.17
15529;BME280;7866;52.280;9.500;2022-07-23T01:27:07;100563.41;;;15.61;82.64
15529;BME280;7866;52.280;9.500;2022-07-23T01:32:09;100560.44;;;15.56;82.98
15529;BME280;7866;52.280;9.500;2022-07-23T01:37:10;100566.44;;;15.72;82.31
15529;BME280;7866;52.280;9.500;2022-07-23T01:42:13;100555.94;;;15.63;82.26
15529;BME280;7866;52.280;9.500;2022-07-23T01:47:15;100567.41;;;15.65;82.57
15529;BME280;7866;52.280;9.500;2022-07-23T01:52:17;100572.94;;;15.57;82.39
15529;BME280;7866;52.280;9.500;2022-07-23T01:57:20;100571.22;;;15.56;82.94
15529;BME280;7866;52.280;9.500;2022-07-23T02:02:21;100571.09;;;15.64;82.52
15529;BME280;7866;52.280;9.500;2022-07-23T02:07:23;100560.22;;;15.79;81.96
15529;BME280;7866;52.280;9.500;2022-07-23T02:12:26;100552.78;;;15.87;81.82
15529;BME280;7866;52.280;9.500;2022-07-23T02:17:28;100556.84;;;15.70;81.79
15529;BME280;7866;52.280;9.500;2022-07-23T02:22:29;100572.94;;;15.85;82.09
15529;BME280;7866;52.280;9.500;2022-07-23T02:27:32;100568.09;;;16.08;82.04
15529;BME280;7866;52.280;9.500;2022-07-23T02:32:34;100550.47;;;16.12;81.98
15529;BME280;7866;52.280;9.500;2022-07-23T02:37:36;100553.00;;;16.20;81.35
15529;BME280;7866;52.280;9.500;2022-07-23T02:42:39;100549.97;;;16.02;81.80
15529;BME280;7866;52.280;9.500;2022-07-23T02:47:41;100537.31;;;16.02;82.39
15529;BME280;7866;52.280;9.500;2022-07-23T02:52:43;100519.91;;;16.12;81.86
15529;BME280;7866;52.280;9.500;2022-07-23T02:57:46;100535.25;;;16.11;81.75
15529;BME280;7866;52.280;9.500;2022-07-23T03:02:47;100515.91;;;16.08;82.37
15529;BME280;7866;52.280;9.500;2022-07-23T03:07:49;100513.91;;;16.16;82.24
15529;BME280;7866;52.280;9.500;2022-07-23T03:12:52;100508.53;;;16.30;82.15
15529;BME280;7866;52.280;9.500;2022-07-23T03:17:54;100499.31;;;16.11;82.51
15529;BME280;7866;52.280;9.500;2022-07-23T03:22:55;100499.50;;;16.09;83.08
15529;BME280;7866;52.280;9.500;2022-07-23T03:27:58;100498.38;;;15.90;83.51
15529;BME280;7866;52.280;9.500;2022-07-23T03:33:00;100501.28;;;15.89;84.95
15529;BME280;7866;52.280;9.500;2022-07-23T03:38:02;100508.78;;;15.93;85.19
15529;BME280;7866;52.280;9.500;2022-07-23T03:43:05;100516.78;;;16.08;85.12
15529;BME280;7866;52.280;9.500;2022-07-23T03:48:06;100539.50;;;15.86;85.28
15529;BME280;7866;52.280;9.500;2022-07-23T03:53:08;100543.56;;;15.75;86.77
15529;BME280;7866;52.280;9.500;2022-07-23T03:58:11;100537.50;;;16.01;86.18
15529;BME280;7866;52.280;9.500;2022-07-23T04:03:13;100531.00;;;15.89;86.36
15529;BME280;7866;52.280;9.500;2022-07-23T04:08:15;100537.41;;;15.88;86.43
15529;BME280;7866;52.280;9.500;2022-07-23T04:13:18;100533.44;;;15.84;87.28
15529;BME280;7866;52.280;9.500;2022-07-23T04:18:19;100545.28;;;15.76;86.81
15529;BME280;7866;52.280;9.500;2022-07-23T04:23:22;100544.81;;;15.72;87.67
15529;BME280;7866;52.280;9.500;2022-07-23T04:28:25;100546.72;;;15.79;87.48
15529;BME280;7866;52.280;9.500;2022-07-23T04:33:26;100539.81;;;15.69;87.47
15529;BME280;7866;52.280;9.500;2022-07-23T04:38:28;100537.19;;;15.55;87.62
15529;BME280;7866;52.280;9.500;2022-07-23T04:43:31;100540.03;;;15.46;88.10
15529;BME280;7866;52.280;9.500;2022-07-23T04:48:33;100541.84;;;15.39;88.60
15529;BME280;7866;52.280;9.500;2022-07-23T04:53:36;100544.25;;;15.56;88.67
15529;BME280;7866;52.280;9.500;2022-07-23T04:58:39;100532.59;;;15.76;87.78
15529;BME280;7866;52.280;9.500;2022-07-23T05:03:41;100546.38;;;15.88;87.19
15529;BME280;7866;52.280;9.500;2022-07-23T05:08:43;100550.47;;;16.12;86.24
15529;BME280;7866;52.280;9.500;2022-07-23T05:13:46;100538.59;;;16.61;85.47
15529;BME280;7866;52.280;9.500;2022-07-23T05:18:47;100555.78;;;17.08;83.12
15529;BME280;7866;52.280;9.500;2022-07-23T05:23:49;100553.47;;;17.65;81.87
15529;BME280;7866;52.280;9.500;2022-07-23T05:28:52;100546.19;;;17.85;81.68
15529;BME280;7866;52.280;9.500;2022-07-23T05:33:54;100543.28;;;18.38;79.14
15529;BME280;7866;52.280;9.500;2022-07-23T05:38:56;100544.53;;;18.87;77.74
15529;BME280;7866;52.280;9.500;2022-07-23T05:43:59;100551.00;;;18.41;78.93
15529;BME280;7866;52.280;9.500;2022-07-23T05:49:00;100554.09;;;18.52;79.21
15529;BME280;7866;52.280;9.500;2022-07-23T05:54:02;100558.28;;;18.92;79.26
15529;BME280;7866;52.280;9.500;2022-07-23T05:59:05;100558.53;;;18.84;75.71
15529;BME280;7866;52.280;9.500;2022-07-23T06:04:07;100561.69;;;18.81;76.06
15529;BME280;7866;52.280;9.500;2022-07-23T06:09:09;100572.50;;;19.44;74.55
15529;BME280;7866;52.280;9.500;2022-07-23T06:14:12;100560.63;;;18.82;73.97
15529;BME280;7866;52.280;9.500;2022-07-23T06:19:14;100559.00;;;18.75;74.59
15529;BME280;7866;52.280;9.500;2022-07-23T06:24:15;100558.78;;;18.76;73.88
15529;BME280;7866;52.280;9.500;2022-07-23T06:29:19;100572.22;;;19.28;72.82
15529;BME280;7866;52.280;9.500;2022-07-23T06:34:20;100566.28;;;19.37;72.81
15529;BME280;7866;52.280;9.500;2022-07-23T06:39:22;100576.16;;;19.32;73.11
15529;BME280;7866;52.280;9.500;2022-07-23T06:44:25;100570.34;;;18.97;73.15
15529;BME280;7866;52.280;9.500;2022-07-23T06:49:27;100574.66;;;19.36;73.04
15529;BME280;7866;52.280;9.500;2022-07-23T06:54:28;100581.28;;;19.15;71.35
15529;BME280;7866;52.280;9.500;2022-07-23T06:59:32;100604.03;;;19.45;71.82
15529;BME280;7866;52.280;9.500;2022-07-23T07:04:36;100596.72;;;19.46;71.28
15529;BME280;7866;52.280;9.500;2022-07-23T07:09:38;100602.56;;;19.75;69.36
15529;BME280;7866;52.280;9.500;2022-07-23T07:14:41;100606.59;;;19.40;70.62
15529;BME280;7866;52.280;9.500;2022-07-23T07:19:42;100610.69;;;19.50;70.09
15529;BME280;7866;52.280;9.500;2022-07-23T07:24:44;100620.47;;;20.07;69.00
15529;BME280;7866;52.280;9.500;2022-07-23T07:29:47;100617.56;;;19.27;71.00
15529;BME280;7866;52.280;9.500;2022-07-23T07:34:49;100623.56;;;19.61;70.56
15529;BME280;7866;52.280;9.500;2022-07-23T07:39:51;100623.56;;;19.36;71.72
15529;BME280;7866;52.280;9.500;2022-07-23T07:44:54;100622.31;;;19.88;68.99
15529;BME280;7866;52.280;9.500;2022-07-23T07:49:55;100633.25;;;19.50;69.99
15529;BME280;7866;52.280;9.500;2022-07-23T07:54:57;100629.69;;;19.25;70.30
15529;BME280;7866;52.280;9.500;2022-07-23T08:00:00;100635.47;;;19.66;68.90
15529;BME280;7866;52.280;9.500;2022-07-23T08:05:02;100633.44;;;20.49;67.06
15529;BME280;7866;52.280;9.500;2022-07-23T08:10:05;100640.72;;;19.86;68.33
15529;BME280;7866;52.280;9.500;2022-07-23T08:15:09;100637.22;;;20.23;68.06
15529;BME280;7866;52.280;9.500;2022-07-23T08:20:12;100637.56;;;21.30;65.32
15529;BME280;7866;52.280;9.500;2022-07-23T08:25:14;100637.75;;;21.35;63.60
15529;BME280;7866;52.280;9.500;2022-07-23T08:30:18;100650.50;;;20.56;66.41
15529;BME280;7866;52.280;9.500;2022-07-23T08:35:25;100645.41;;;19.79;68.29
15529;BME280;7866;52.280;9.500;2022-07-23T08:40:29;100650.19;;;19.52;69.10
15529;BME280;7866;52.280;9.500;2022-07-23T08:45:36;100665.09;;;20.80;65.33
15529;BME280;7866;52.280;9.500;2022-07-23T08:50:42;100654.25;;;21.52;62.17
15529;BME280;7866;52.280;9.500;2022-07-23T08:55:44;100658.41;;;20.94;63.32
15529;BME280;7866;52.280;9.500;2022-07-23T09:00:48;100664.16;;;20.31;65.66
15529;BME280;7866;52.280;9.500;2022-07-23T09:05:51;100654.25;;;20.91;64.13
15529;BME280;7866;52.280;9.500;2022-07-23T09:10:54;100651.28;;;20.63;64.48
15529;BME280;7866;52.280;9.500;2022-07-23T09:15:59;100654.97;;;20.69;64.36
15529;BME280;7866;52.280;9.500;2022-07-23T09:21:12;100653.25;;;20.12;65.68
15529;BME280;7866;52.280;9.500;2022-07-23T09:26:23;100668.69;;;21.40;62.95
15529;BME280;7866;52.280;9.500;2022-07-23T09:31:32;100657.03;;;21.75;60.70
15529;BME280;7866;52.280;9.500;2022-07-23T09:36:34;100657.03;;;21.03;62.98
15529;BME280;7866;52.280;9.500;2022-07-23T09:41:38;100658.06;;;20.54;63.82
15529;BME280;7866;52.280;9.500;2022-07-23T09:46:42;100663.66;;;20.77;63.44
15529;BME280;7866;52.280;9.500;2022-07-23T09:51:47;100659.47;;;22.19;58.29
15529;BME280;7866;52.280;9.500;2022-07-23T09:56:49;100647.34;;;22.26;57.57
15529;BME280;7866;52.280;9.500;2022-07-23T10:01:55;100654.91;;;22.48;58.24
15529;BME280;7866;52.280;9.500;2022-07-23T10:06:58;100652.34;;;22.70;57.09
15529;BME280;7866;52.280;9.500;2022-07-23T10:12:02;100658.94;;;22.33;57.79
15529;BME280;7866;52.280;9.500;2022-07-23T10:17:24;100659.53;;;22.00;59.62
15529;BME280;7866;52.280;9.500;2022-07-23T10:22:29;100671.03;;;21.91;58.90
15529;BME280;7866;52.280;9.500;2022-07-23T10:27:57;100672.34;;;22.58;57.33
15529;BME280;7866;52.280;9.500;2022-07-23T10:33:21;100660.63;;;22.34;53.32
15529;BME280;7866;52.280;9.500;2022-07-23T10:38:27;100667.34;;;22.08;57.02
15529;BME280;7866;52.280;9.500;2022-07-23T10:43:31;100653.66;;;22.15;57.53
15529;BME280;7866;52.280;9.500;2022-07-23T10:48:35;100660.88;;;22.21;57.14
15529;BME280;7866;52.280;9.500;2022-07-23T10:53:57;100668.06;;;22.04;56.82
15529;BME280;7866;52.280;9.500;2022-07-23T10:59:03;100667.59;;;22.07;57.50
15529;BME280;7866;52.280;9.500;2022-07-23T11:04:08;100668.41;;;22.66;55.88
15529;BME280;7866;52.280;9.500;2022-07-23T11:09:23;100653.72;;;23.70;50.76
15529;BME280;7866;52.280;9.500;2022-07-23T11:14:57;100650.19;;;24.25;49.30
15529;BME280;7866;52.280;9.500;2022-07-23T11:20:21;100651.84;;;23.70;50.83
15529;BME280;7866;52.280;9.500;2022-07-23T11:25:33;100658.13;;;22.21;56.62
15529;BME280;7866;52.280;9.500;2022-07-23T11:30:39;100657.56;;;22.95;55.17
15529;BME280;7866;52.280;9.500;2022-07-23T11:35:44;100642.41;;;23.32;52.75
15529;BME280;7866;52.280;9.500;2022-07-23T11:40:49;100641.34;;;23.05;53.10
15529;BME280;7866;52.280;9.500;2022-07-23T11:45:53;100648.50;;;22.42;54.33
15529;BME280;7866;52.280;9.500;2022-07-23T11:50:57;100649.78;;;23.03;53.01
15529;BME280;7866;52.280;9.500;2022-07-23T11:56:04;100641.09;;;23.52;51.53
15529;BME280;7866;52.280;9.500;2022-07-23T12:01:06;100664.47;;;22.62;53.75
15529;BME280;7866;52.280;9.500;2022-07-23T12:06:09;100645.41;;;23.48;51.49
15529;BME280;7866;52.280;9.500;2022-07-23T12:11:12;100648.41;;;23.63;48.84
15529;BME280;7866;52.280;9.500;2022-07-23T12:16:13;100646.59;;;23.85;50.59
15529;BME280;7866;52.280;9.500;2022-07-23T12:21:17;100637.25;;;24.20;49.61
15529;BME280;7866;52.280;9.500;2022-07-23T12:26:18;100636.66;;;24.74;48.76
15529;BME280;7866;52.280;9.500;2022-07-23T12:31:25;100634.03;;;24.62;46.24
15529;BME280;7866;52.280;9.500;2022-07-23T12:36:38;100657.56;;;24.41;48.92
15529;BME280;7866;52.280;9.500;2022-07-23T12:41:58;100649.44;;;24.29;45.51
15529;BME280;7866;52.280;9.500;2022-07-23T12:47:04;100649.09;;;23.87;49.21
15529;BME280;7866;52.280;9.500;2022-07-23T12:52:16;100646.84;;;24.78;47.28
15529;BME280;7866;52.280;9.500;2022-07-23T12:57:18;100662.16;;;24.57;48.33
15529;BME280;7866;52.280;9.500;2022-07-23T13:02:19;100654.16;;;24.34;46.19
15529;BME280;7866;52.280;9.500;2022-07-23T13:07:22;100651.69;;;25.20;47.78
15529;BME280;7866;52.280;9.500;2022-07-23T13:12:24;100650.00;;;25.14;48.16
15529;BME280;7866;52.280;9.500;2022-07-23T13:17:26;100656.47;;;25.30;47.12
15529;BME280;7866;52.280;9.500;2022-07-23T13:22:29;100647.38;;;25.02;47.78
15529;BME280;7866;52.280;9.500;2022-07-23T13:27:30;100656.56;;;24.69;47.95
15529;BME280;7866;52.280;9.500;2022-07-23T13:32:32;100669.25;;;25.46;46.21
15529;BME280;7866;52.280;9.500;2022-07-23T13:37:35;100654.16;;;25.49;46.24
15529;BME280;7866;52.280;9.500;2022-07-23T13:42:37;100644.09;;;25.87;45.62
15529;BME280;7866;52.280;9.500;2022-07-23T13:47:39;100654.91;;;25.12;46.60
15529;BME280;7866;52.280;9.500;2022-07-23T13:52:42;100660.38;;;25.66;45.17
15529;BME280;7866;52.280;9.500;2022-07-23T13:57:44;100664.09;;;25.55;45.83
15529;BME280;7866;52.280;9.500;2022-07-23T14:02:46;100653.25;;;25.11;46.53
15529;BME280;7866;52.280;9.500;2022-07-23T14:07:49;100654.00;;;24.24;48.34
15529;BME280;7866;52.280;9.500;2022-07-23T14:12:52;100665.09;;;24.95;45.92
15529;BME280;7866;52.280;9.500;2022-07-23T14:17:56;100656.97;;;25.54;44.89
15529;BME280;7866;52.280;9.500;2022-07-23T14:22:59;100667.59;;;24.74;46.19
15529;BME280;7866;52.280;9.500;2022-07-23T14:28:01;100660.06;;;25.36;45.21
15529;BME280;7866;52.280;9.500;2022-07-23T14:33:03;100663.94;;;25.40;44.49
15529;BME280;7866;52.280;9.500;2022-07-23T14:38:06;100665.22;;;25.59;44.18
15529;BME280;7866;52.280;9.500;2022-07-23T14:43:08;100676.81;;;25.66;42.50
15529;BME280;7866;52.280;9.500;2022-07-23T14:48:10;100667.16;;;25.86;43.72
15529;BME280;7866;52.280;9.500;2022-07-23T14:53:13;100669.16;;;25.41;42.17
15529;BME280;7866;52.280;9.500;2022-07-23T14:58:15;100671.28;;;25.61;44.95
15529;BME280;7866;52.280;9.500;2022-07-23T15:03:18;100675.88;;;25.83;42.92
15529;BME280;7866;52.280;9.500;2022-07-23T15:08:21;100673.59;;;25.74;43.36
15529;BME280;7866;52.280;9.500;2022-07-23T15:13:22;100673.81;;;25.41;44.16
15529;BME280;7866;52.280;9.500;2022-07-23T15:18:24;100661.19;;;25.99;43.66
15529;BME280;7866;52.280;9.500;2022-07-23T15:23:27;100672.56;;;25.80;43.47
15529;BME280;7866;52.280;9.500;2022-07-23T15:28:29;100667.97;;;25.86;43.09
15529;BME280;7866;52.280;9.500;2022-07-23T15:33:31;100674.56;;;25.58;44.05
15529;BME280;7866;52.280;9.500;2022-07-23T15:38:34;100674.66;;;25.41;43.49
15529;BME280;7866;52.280;9.500;2022-07-23T15:43:36;100663.47;;;25.21;44.59
15529;BME280;7866;52.280;9.500;2022-07-23T15:48:37;100666.91;;;25.33;44.37
15529;BME280;7866;52.280;9.500;2022-07-23T15:53:41;100674.19;;;25.00;42.75
15529;BME280;7866;52.280;9.500;2022-07-23T15:58:43;100668.09;;;25.15;43.96
15529;BME280;7866;52.280;9.500;2022-07-23T16:03:44;100666.38;;;24.09;46.18
15529;BME280;7866;52.280;9.500;2022-07-23T16:08:48;100659.50;;;24.63;45.35
15529;BME280;7866;52.280;9.500;2022-07-23T16:13:50;100665.38;;;24.71;44.84
15529;BME280;7866;52.280;9.500;2022-07-23T16:18:51;100666.38;;;24.26;45.58
15529;BME280;7866;52.280;9.500;2022-07-23T16:23:55;100661.66;;;24.39;45.13
15529;BME280;7866;52.280;9.500;2022-07-23T16:28:56;100660.47;;;24.34;45.10
15529;BME280;7866;52.280;9.500;2022-07-23T16:33:58;100654.16;;;24.34;45.44
15529;BME280;7866;52.280;9.500;2022-07-23T16:39:02;100655.69;;;24.08;45.10
15529;BME280;7866;52.280;9.500;2022-07-23T16:44:04;100661.19;;;23.91;46.31
15529;BME280;7866;52.280;9.500;2022-07-23T16:49:05;100659.19;;;23.70;46.77
15529;BME280;7866;52.280;9.500;2022-07-23T16:54:09;100652.91;;;23.86;46.38
15529;BME280;7866;52.280;9.500;2022-07-23T16:59:10;100656.31;;;23.76;46.56
15529;BME280;7866;52.280;9.500;2022-07-23T17:04:12;100657.50;;;23.52;46.90
15529;BME280;7866;52.280;9.500;2022-07-23T17:09:15;100663.78;;;23.52;46.36
15529;BME280;7866;52.280;9.500;2022-07-23T17:14:17;100666.94;;;23.44;47.06
15529;BME280;7866;52.280;9.500;2022-07-23T17:19:19;100661.88;;;23.36;47.01
15529;BME280;7866;52.280;9.500;2022-07-23T17:24:22;100667.00;;;23.32;46.67
15529;BME280;7866;52.280;9.500;2022-07-23T17:29:24;100665.06;;;23.16;47.44
15529;BME280;7866;52.280;9.500;2022-07-23T17:34:27;100676.75;;;23.28;47.41
15529;BME280;7866;52.280;9.500;2022-07-23T17:39:30;100686.03;;;23.27;47.46
15529;BME280;7866;52.280;9.500;2022-07-23T17:44:32;100684.09;;;23.11;47.43
15529;BME280;7866;52.280;9.500;2022-07-23T17:49:34;100681.75;;;23.03;47.55
15529;BME280;7866;52.280;9.500;2022-07-23T17:54:37;100687.78;;;23.05;47.83
15529;BME280;7866;52.280;9.500;2022-07-23T17:59:39;100689.34;;;23.01;48.53
15529;BME280;7866;52.280;9.500;2022-07-23T18:04:40;100686.78;;;22.82;48.83
15529;BME280;7866;52.280;9.500;2022-07-23T18:09:43;100691.19;;;22.72;49.05
15529;BME280;7866;52.280;9.500;2022-07-23T18:14:45;100692.47;;;22.69;49.33
15529;BME280;7866;52.280;9.500;2022-07-23T18:19:49;100688.13;;;22.56;49.47
15529;BME280;7866;52.280;9.500;2022-07-23T18:24:52;100691.59;;;22.40;50.79
15529;BME280;7866;52.280;9.500;2022-07-23T18:29:54;100698.94;;;22.28;50.12
15529;BME280;7866;52.280;9.500;2022-07-23T18:34:55;100695.41;;;22.27;50.70
15529;BME280;7866;52.280;9.500;2022-07-23T18:39:59;100709.56;;;22.06;52.42
15529;BME280;7866;52.280;9.500;2022-07-23T18:45:02;100708.84;;;21.75;54.25
15529;BME280;7866;52.280;9.500;2022-07-23T18:50:05;100712.72;;;21.37;56.46
15529;BME280;7866;52.280;9.500;2022-07-23T18:55:09;100710.94;;;21.13;56.89
15529;BME280;7866;52.280;9.500;2022-07-23T19:00:11;100730.78;;;21.02;57.13
15529;BME280;7866;52.280;9.500;2022-07-23T19:05:13;100728.38;;;20.94;56.89
15529;BME280;7866;52.280;9.500;2022-07-23T19:10:17;100734.41;;;20.77;57.55
15529;BME280;7866;52.280;9.500;2022-07-23T19:15:19;100735.03;;;20.61;57.80
15529;BME280;7866;52.280;9.500;2022-07-23T19:20:20;100748.94;;;20.28;58.36
15529;BME280;7866;52.280;9.500;2022-07-23T19:25:23;100745.38;;;20.27;59.11
15529;BME280;7866;52.280;9.500;2022-07-23T19:30:25;100740.53;;;20.04;59.11
15529;BME280;7866;52.280;9.500;2022-07-23T19:35:27;100746.03;;;19.98;59.06
15529;BME280;7866;52.280;9.500;2022-07-23T19:40:30;100756.47;;;19.69;59.58
15529;BME280;7866;52.280;9.500;2022-07-23T19:45:32;100751.88;;;19.69;59.76
15529;BME280;7866;52.280;9.500;2022-07-23T19:50:34;100765.59;;;19.43;60.03
15529;BME280;7866;52.280;9.500;2022-07-23T19:55:37;100773.59;;;19.31;60.39
15529;BME280;7866;52.280;9.500;2022-07-23T20:00:38;100774.84;;;19.29;60.27
15529;BME280;7866;52.280;9.500;2022-07-23T20:05:40;100791.97;;;19.29;60.63
15529;BME280;7866;52.280;9.500;2022-07-23T20:10:43;100786.41;;;19.11;61.27
15529;BME280;7866;52.280;9.500;2022-07-23T20:15:45;100793.28;;;19.13;61.15
15529;BME280;7866;52.280;9.500;2022-07-23T20:20:48;100790.63;;;19.00;61.53
15529;BME280;7866;52.280;9.500;2022-07-23T20:25:51;100793.75;;;18.97;61.73
15529;BME280;7866;52.280;9.500;2022-07-23T20:30:53;100793.56;;;18.85;62.25
15529;BME280;7866;52.280;9.500;2022-07-23T20:35:54;100799.66;;;18.87;62.65
15529;BME280;7866;52.280;9.500;2022-07-23T20:40:58;100799.88;;;18.79;62.93
15529;BME280;7866;52.280;9.500;2022-07-23T20:46:00;100785.47;;;18.72;63.21
15529;BME280;7866;52.280;9.500;2022-07-23T20:51:02;100792.75;;;18.58;64.01
15529;BME280;7866;52.280;9.500;2022-07-23T20:56:06;100796.31;;;18.45;64.86
15529;BME280;7866;52.280;9.500;2022-07-23T21:01:08;100798.63;;;18.42;64.80
15529;BME280;7866;52.280;9.500;2022-07-23T21:06:10;100795.06;;;18.35;65.43
15529;BME280;7866;52.280;9.500;2022-07-23T21:11:13;100793.41;;;18.20;65.50
15529;BME280;7866;52.280;9.500;2022-07-23T21:16:15;100805.09;;;18.21;65.42
15529;BME280;7866;52.280;9.500;2022-07-23T21:21:17;100807.38;;;18.24;65.20
15529;BME280;7866;52.280;9.500;2022-07-23T21:26:20;100801.72;;;18.19;64.95
15529;BME280;7866;52.280;9.500;2022-07-23T21:31:23;100811.34;;;18.08;65.76
15529;BME280;7866;52.280;9.500;2022-07-23T21:36:24;100809.47;;;18.15;65.46
15529;BME280;7866;52.280;9.500;2022-07-23T21:41:27;100806.53;;;18.17;65.65
15529;BME280;7866;52.280;9.500;2022-07-23T21:46:32;100819.66;;;17.93;65.91
15529;BME280;7866;52.280;9.500;2022-07-23T21:51:34;100816.09;;;17.86;66.55
15529;BME280;7866;52.280;9.500;2022-07-23T21:56:37;100822.56;;;17.85;66.36
15529;BME280;7866;52.280;9.500;2022-07-23T22:01:39;100831.03;;;17.69;66.72
15529;BME280;7866;52.280;9.500;2022-07-23T22:06:41;100823.78;;;17.76;66.35
15529;BME280;7866;52.280;9.500;2022-07-23T22:11:44;100823.13;;;17.67;66.35
15529;BME280;7866;52.280;9.500;2022-07-23T22:16:46;100821.16;;;17.55;66.28
15529;BME280;7866;52.280;9.500;2022-07-23T22:21:47;100825.53;;;17.49;66.57
15529;BME280;7866;52.280;9.500;2022-07-23T22:26:50;100828.47;;;17.47;66.64
15529;BME280;7866;52.280;9.500;2022-07-23T22:31:52;100826.06;;;17.24;67.19
15529;BME280;7866;52.280;9.500;2022-07-23T22:36:54;100831.25;;;17.26;67.28
15529;BME280;7866;52.280;9.500;2022-07-23T22:41:57;100832.09;;;17.20;67.87
15529;BME280;7866;52.280;9.500;2022-07-23T22:46:58;100831.97;;;17.00;68.91
15529;BME280;7866;52.280;9.500;2022-07-23T22:52:00;100823.69;;;17.08;68.43
15529;BME280;7866;52.280;9.500;2022-07-23T22:57:03;100838.44;;;17.06;68.03
15529;BME280;7866;52.280;9.500;2022-07-23T23:02:05;100823.69;;;17.08;68.20
15529;BME280;7866;52.280;9.500;2022-07-23T23:07:07;100827.22;;;17.09;68.46
15529;BME280;7866;52.280;9.500;2022-07-23T23:12:10;100811.91;;;16.88;68.82
15529;BME280;7866;52.280;9.500;2022-07-23T23:17:11;100813.53;;;16.82;69.41
15529;BME280;7866;52.280;9.500;2022-07-23T23:22:13;100813.34;;;16.84;69.29
15529;BME280;7866;52.280;9.500;2022-07-23T23:27:16;100805.03;;;16.85;69.62
15529;BME280;7866;52.280;9.500;2022-07-23T23:32:18;100813.16;;;16.85;69.22
15529;BME280;7866;52.280;9.500;2022-07-23T23:37:20;100826.47;;;16.87;69.24
15529;BME280;7866;52.280;9.500;2022-07-23T23:42:23;100822.47;;;16.76;69.23
15529;BME280;7866;52.280;9.500;2022-07-23T23:47:24;100817.44;;;16.73;69.91
15529;BME280;7866;52.280;9.500;2022-07-23T23:52:26;100820.50;;;16.70;70.39
15529;BME280;7866;52.280;9.500;2022-07-23T23:57:29;100810.34;;;16.72;70.43
